Terminal Aerodrome Forecast
Issued by NWS

Home | Current Version | Previous Version | Text Only | Print | Product List | Glossary On
Versions: 1 2 3 4 5 6 7 8 9 10 11 12 13 14
000
FTUS44 KLZK 271100
TAFHRO
TAF
KHRO 271124Z 2712/2812 04008KT P6SM BKN100
     FM280000 09005KT P6SM -SN OVC050
     FM280400 10008KT P6SM -SN BKN020=

USA.gov is the U.S. government's official web portal to all federal, state and local government web resources and services.